Time;durP1;ratioP1;P1;durP2;ratioP2;P2;SDS_P1;SDS_P2;PMS_P1;PMS_P2;Temp;Humidity;BMP_temperature;BMP_pressure;BME280_temperature;BME280_humidity;BME280_pressure;Samples;Min_cycle;Max_cycle;Signal;HPM_P1;HPM_P2
2021/01/18 00:00:25;;;;;;;54.87;41.47;;;4.50;71.60;;;;;;5080968;28;20037;-57
2021/01/18 00:02:51;;;;;;;52.57;39.40;;;4.40;71.20;;;;;;5077005;28;20040;-57
2021/01/18 00:05:17;;;;;;;56.50;41.43;;;4.40;71.70;;;;;;5075660;28;20134;-57
2021/01/18 00:07:44;;;;;;;60.30;41.47;;;4.40;71.90;;;;;;5082204;28;20498;-57
2021/01/18 00:10:15;;;;;;;58.97;41.77;;;4.40;72.10;;;;;;5080381;28;20123;-59
2021/01/18 00:12:48;;;;;;;58.20;41.97;;;4.50;71.90;;;;;;5081299;28;20090;-57
2021/01/18 00:15:15;;;;;;;55.60;40.17;;;4.50;71.50;;;;;;5077661;28;20067;-56
2021/01/18 00:17:41;;;;;;;53.00;40.00;;;4.40;71.60;;;;;;5078503;28;20040;-58
2021/01/18 00:20:08;;;;;;;56.17;42.00;;;4.50;71.70;;;;;;5071899;28;20241;-57
2021/01/18 00:22:37;;;;;;;54.20;40.93;;;4.50;71.30;;;;;;5082496;28;20060;-58
2021/01/18 00:25:06;;;;;;;55.27;39.57;;;4.40;71.20;;;;;;5073524;28;20071;-59
2021/01/18 00:27:31;;;;;;;56.33;42.77;;;4.40;71.30;;;;;;5077211;28;20127;-57
2021/01/18 00:29:57;;;;;;;56.80;42.47;;;4.50;71.70;;;;;;5079185;28;20119;-57
2021/01/18 00:32:23;;;;;;;59.30;42.47;;;4.50;71.60;;;;;;5071176;28;20500;-57
2021/01/18 00:34:48;;;;;;;59.87;42.87;;;4.40;71.40;;;;;;5079474;28;20036;-61
2021/01/18 00:37:15;;;;;;;55.97;41.67;;;4.40;71.80;;;;;;5079103;28;20039;-58
2021/01/18 00:39:43;;;;;;;61.20;44.00;;;4.40;71.60;;;;;;5084392;28;20107;-57
2021/01/18 00:42:16;;;;;;;53.53;40.50;;;4.40;71.70;;;;;;5076740;28;20094;-58
2021/01/18 00:44:41;;;;;;;57.40;41.73;;;4.40;71.80;;;;;;5079225;28;20472;-58
2021/01/18 00:47:07;;;;;;;61.17;44.03;;;4.40;71.90;;;;;;5076424;28;20147;-58
2021/01/18 00:49:33;;;;;;;54.67;40.20;;;4.40;72.10;;;;;;5078471;28;20043;-58
2021/01/18 00:51:58;;;;;;;56.73;42.27;;;4.40;71.60;;;;;;5078463;28;20074;-57
2021/01/18 00:54:24;;;;;;;58.70;42.83;;;4.40;71.50;;;;;;5079403;28;20056;-58
2021/01/18 00:56:50;;;;;;;58.20;41.37;;;4.40;71.80;;;;;;5074591;28;20405;-56
2021/01/18 00:59:16;;;;;;;58.53;42.63;;;4.40;71.60;;;;;;5077659;28;20037;-57
2021/01/18 01:01:42;;;;;;;60.23;42.77;;;4.40;71.10;;;;;;5079658;28;20036;-59
2021/01/18 01:04:08;;;;;;;61.53;42.20;;;4.40;71.10;;;;;;5081043;28;20521;-56
2021/01/18 01:06:34;;;;;;;56.17;40.53;;;4.40;70.70;;;;;;5079107;28;20036;-56
2021/01/18 01:09:00;;;;;;;58.17;41.47;;;4.40;71.10;;;;;;5076723;28;20085;-58
2021/01/18 01:11:26;;;;;;;53.87;40.67;;;4.40;70.80;;;;;;5065987;28;20523;-57
2021/01/18 01:13:52;;;;;;;57.97;41.80;;;4.40;71.00;;;;;;5079681;28;20067;-58
2021/01/18 01:16:18;;;;;;;57.77;41.47;;;4.40;70.80;;;;;;5076258;28;20116;-56
2021/01/18 01:18:43;;;;;;;62.57;42.87;;;4.40;71.30;;;;;;5074685;28;20498;-57
2021/01/18 01:21:09;;;;;;;57.20;42.63;;;4.40;71.40;;;;;;5081294;28;20393;-57
2021/01/18 01:23:35;;;;;;;55.10;41.83;;;4.50;72.20;;;;;;5077227;28;20155;-57
2021/01/18 01:26:01;;;;;;;56.83;41.93;;;4.40;71.50;;;;;;5077551;28;20481;-58
2021/01/18 01:28:27;;;;;;;54.73;40.50;;;4.30;71.90;;;;;;5081310;28;20127;-57
2021/01/18 01:30:52;;;;;;;54.10;40.43;;;4.30;72.20;;;;;;5078850;28;20115;-58
2021/01/18 01:33:18;;;;;;;58.23;41.93;;;4.30;72.40;;;;;;5064579;28;20143;-58
2021/01/18 01:35:44;;;;;;;61.87;42.70;;;4.30;72.30;;;;;;5085083;28;20092;-57
2021/01/18 01:38:10;;;;;;;54.63;42.00;;;4.40;72.50;;;;;;5075604;28;20048;-58
2021/01/18 01:40:36;;;;;;;58.87;42.13;;;4.30;72.90;;;;;;5076729;28;20036;-58
2021/01/18 01:43:03;;;;;;;61.33;43.13;;;4.30;72.80;;;;;;5079001;28;20054;-57
2021/01/18 01:45:28;;;;;;;54.90;43.57;;;4.30;72.90;;;;;;5075436;28;20040;-57
2021/01/18 01:47:55;;;;;;;64.53;43.87;;;4.40;73.20;;;;;;5079581;28;20029;-58
2021/01/18 01:50:30;;;;;;;60.53;45.47;;;4.40;73.00;;;;;;5070631;28;20112;-58
2021/01/18 01:53:12;;;;;;;67.13;46.80;;;4.20;73.20;;;;;;5076844;28;20119;-57
2021/01/18 01:55:38;;;;;;;66.07;49.27;;;4.20;73.80;;;;;;5074247;28;20036;-56
2021/01/18 01:58:06;;;;;;;60.93;45.83;;;4.20;74.70;;;;;;5079480;28;20130;-57
2021/01/18 02:00:39;;;;;;;62.03;45.43;;;4.20;74.20;;;;;;5073588;28;20037;-56
2021/01/18 02:03:10;;;;;;;66.53;45.40;;;4.20;73.80;;;;;;5076342;28;20051;-57
2021/01/18 02:05:37;;;;;;;61.73;45.50;;;4.20;74.40;;;;;;5079059;28;20478;-58
2021/01/18 02:08:04;;;;;;;61.00;47.27;;;4.10;73.90;;;;;;5076453;28;20053;-57
2021/01/18 02:10:31;;;;;;;62.73;46.33;;;4.10;74.30;;;;;;5076971;28;20106;-58
2021/01/18 02:13:05;;;;;;;62.57;48.07;;;4.20;74.10;;;;;;5076271;28;20570;-57
2021/01/18 02:15:50;;;;;;;48.43;36.07;;;4.20;74.00;;;;;;5078572;28;20130;-58
2021/01/18 02:18:24;;;;;;;66.13;46.50;;;4.10;74.60;;;;;;5078762;28;20286;-56
2021/01/18 02:21:24;;;;;;;62.95;46.50;;;4.00;74.60;;;;;;5073308;28;20035;-56
2021/01/18 02:23:56;;;;;;;60.13;46.20;;;4.00;74.70;;;;;;5082390;28;20048;-57
2021/01/18 02:26:37;;;;;;;66.90;47.13;;;4.10;74.70;;;;;;5074441;28;20036;-55
2021/01/18 02:29:24;;;;;;;64.40;46.03;;;4.10;75.00;;;;;;5076372;28;20032;-57
2021/01/18 02:32:05;;;;;;;61.20;47.17;;;4.10;75.10;;;;;;5076270;28;20033;-58
2021/01/18 02:34:48;;;;;;;64.07;45.20;;;4.10;75.10;;;;;;5073459;28;20374;-57
2021/01/18 02:37:28;;;;;;;61.23;45.07;;;4.10;75.10;;;;;;5071669;28;20390;-56
2021/01/18 02:40:09;;;;;;;58.47;45.70;;;4.10;75.10;;;;;;5055025;28;20036;-57
2021/01/18 02:42:41;;;;;;;65.00;46.23;;;4.10;74.90;;;;;;5076374;28;20401;-57
2021/01/18 02:45:10;;;;;;;62.87;44.53;;;4.20;74.60;;;;;;5076626;28;20086;-58
2021/01/18 02:47:37;;;;;;;61.53;44.00;;;4.20;74.20;;;;;;5077214;28;20126;-57
2021/01/18 02:50:04;;;;;;;57.83;43.77;;;4.20;74.00;;;;;;5079374;28;20096;-57
2021/01/18 02:52:29;;;;;;;65.60;46.63;;;4.20;73.70;;;;;;5077770;28;20100;-57
2021/01/18 02:54:55;;;;;;;61.53;44.63;;;4.20;73.90;;;;;;5074389;28;20131;-57
2021/01/18 02:57:22;;;;;;;59.33;46.07;;;4.20;74.30;;;;;;5073433;28;20117;-57
2021/01/18 02:59:48;;;;;;;61.13;44.80;;;4.20;73.90;;;;;;5076592;28;20453;-58
2021/01/18 03:02:25;;;;;;;62.23;45.80;;;4.10;74.10;;;;;;5075768;28;20096;-57
2021/01/18 03:05:16;;;;;;;60.53;45.47;;;4.20;73.80;;;;;;5076936;28;20088;-55
2021/01/18 03:08:06;;;;;;;64.47;46.00;;;4.20;74.10;;;;;;5069062;28;20470;-58
2021/01/18 03:10:36;;;;;;;63.50;44.37;;;4.20;73.40;;;;;;5054775;28;20039;-56
2021/01/18 03:13:10;;;;;;;58.70;44.00;;;4.10;73.20;;;;;;5072743;28;20064;-57
2021/01/18 03:15:42;;;;;;;60.70;43.30;;;4.10;73.40;;;;;;5079776;28;20047;-58
2021/01/18 03:18:14;;;;;;;57.53;43.43;;;4.00;73.10;;;;;;5071937;28;20035;-58
2021/01/18 03:20:42;;;;;;;55.20;41.07;;;4.00;73.40;;;;;;5059639;28;20541;-57
2021/01/18 03:23:08;;;;;;;62.20;44.93;;;4.10;73.20;;;;;;5070966;28;20056;-59
2021/01/18 03:25:46;;;;;;;61.90;46.07;;;4.00;73.60;;;;;;5077883;28;20131;-58
2021/01/18 03:28:12;;;;;;;65.97;48.47;;;4.10;74.30;;;;;;5068118;28;20040;-57
2021/01/18 03:30:38;;;;;;;64.37;47.10;;;4.00;73.70;;;;;;5078153;28;20048;-57
2021/01/18 03:33:04;;;;;;;70.00;50.37;;;4.10;74.40;;;;;;5072800;28;20063;-58
2021/01/18 03:35:29;;;;;;;67.40;50.67;;;4.10;73.80;;;;;;5077404;28;20097;-56
2021/01/18 03:37:58;;;;;;;70.27;50.33;;;4.10;74.00;;;;;;5076302;28;20032;-56
2021/01/18 03:40:25;;;;;;;72.97;50.87;;;4.10;74.00;;;;;;5070843;28;20042;-56
2021/01/18 03:42:56;;;;;;;67.90;49.33;;;4.10;74.30;;;;;;5072931;28;20044;-57
2021/01/18 03:45:21;;;;;;;66.17;50.43;;;4.10;74.10;;;;;;5075432;28;20041;-58
2021/01/18 03:47:47;;;;;;;67.63;48.60;;;4.00;74.10;;;;;;5077790;28;20063;-58
2021/01/18 03:50:13;;;;;;;71.60;50.20;;;4.00;74.40;;;;;;5076781;28;20058;-58
2021/01/18 03:52:39;;;;;;;68.93;49.27;;;4.10;74.60;;;;;;5074745;28;22840;-58
2021/01/18 03:55:05;;;;;;;64.37;47.03;;;4.10;74.50;;;;;;5071428;28;20047;-57
2021/01/18 03:57:31;;;;;;;72.20;50.87;;;4.10;73.60;;;;;;5078734;28;20033;-57
2021/01/18 03:59:56;;;;;;;66.87;48.47;;;4.00;73.90;;;;;;5072914;28;20054;-57
2021/01/18 04:02:22;;;;;;;64.70;46.87;;;4.00;74.20;;;;;;5080577;28;20401;-57
2021/01/18 04:04:47;;;;;;;59.13;44.70;;;4.10;73.90;;;;;;5075443;28;20044;-58
2021/01/18 04:07:13;;;;;;;62.70;47.20;;;4.10;73.80;;;;;;5080954;28;20044;-55
2021/01/18 04:09:38;;;;;;;64.93;46.40;;;4.00;73.50;;;;;;5071038;28;20100;-58
2021/01/18 04:12:05;;;;;;;65.97;46.87;;;4.10;73.30;;;;;;5076653;28;20056;-58
2021/01/18 04:14:31;;;;;;;65.63;46.80;;;4.00;73.40;;;;;;5071217;28;20072;-57
2021/01/18 04:16:57;;;;;;;62.77;44.97;;;4.00;73.70;;;;;;5076641;28;20032;-58
2021/01/18 04:19:23;;;;;;;68.50;47.57;;;4.00;73.50;;;;;;5069410;28;20085;-58
2021/01/18 04:21:48;;;;;;;60.23;45.73;;;4.10;73.40;;;;;;5077837;28;20892;-57
2021/01/18 04:24:14;;;;;;;62.80;46.40;;;4.00;73.50;;;;;;5079159;28;20443;-57
2021/01/18 04:26:40;;;;;;;64.20;47.57;;;4.00;73.70;;;;;;5069100;28;20060;-57
2021/01/18 04:29:05;;;;;;;67.53;47.33;;;4.00;73.70;;;;;;5080956;28;20460;-58
2021/01/18 04:31:31;;;;;;;66.97;48.43;;;4.00;74.20;;;;;;5077340;28;20370;-57
2021/01/18 04:33:57;;;;;;;66.83;48.77;;;4.00;74.00;;;;;;5077121;28;20085;-57
2021/01/18 04:36:22;;;;;;;64.87;45.13;;;4.00;74.10;;;;;;5062866;28;20036;-56
2021/01/18 04:38:49;;;;;;;62.27;45.10;;;3.90;73.90;;;;;;5078718;28;20028;-58
2021/01/18 04:41:15;;;;;;;63.90;46.37;;;4.00;74.20;;;;;;5059016;28;20040;-58
2021/01/18 04:43:41;;;;;;;64.40;47.70;;;3.90;74.20;;;;;;5078018;28;20053;-57
2021/01/18 04:46:12;;;;;;;64.87;48.60;;;3.90;74.40;;;;;;5065496;28;20146;-57
2021/01/18 04:48:38;;;;;;;66.87;49.13;;;4.00;74.50;;;;;;5060486;28;20495;-58
2021/01/18 04:51:14;;;;;;;67.87;50.43;;;3.90;74.00;;;;;;5075589;28;20119;-56
2021/01/18 04:53:50;;;;;;;68.13;48.03;;;4.00;74.30;;;;;;5080664;28;20437;-57
2021/01/18 04:56:45;;;;;;;65.27;47.03;;;3.90;74.20;;;;;;5074668;28;20043;-57
2021/01/18 04:59:13;;;;;;;66.28;46.60;;;3.90;74.90;;;;;;5053565;28;20040;-57
2021/01/18 05:01:41;;;;;;;67.43;47.63;;;3.90;74.50;;;;;;5079370;28;20111;-58
2021/01/18 05:04:26;;;;;;;62.70;47.13;;;3.80;74.60;;;;;;5083544;28;20052;-55
2021/01/18 05:06:59;;;;;;;66.22;44.88;;;3.90;75.00;;;;;;5061201;28;20463;-57
2021/01/18 05:09:30;;;;;;;60.43;45.27;;;3.90;74.90;;;;;;5079135;28;20056;-59
2021/01/18 05:11:57;;;;;;;65.13;46.00;;;3.90;75.00;;;;;;5072740;28;20109;-56
2021/01/18 05:14:23;;;;;;;66.80;47.50;;;3.80;74.90;;;;;;5082612;28;20045;-56
2021/01/18 05:16:55;;;;;;;67.17;48.53;;;3.80;75.10;;;;;;5075208;28;20055;-55
2021/01/18 05:19:23;;;;;;;67.70;48.03;;;3.90;75.00;;;;;;5077338;28;20090;-53
2021/01/18 05:21:50;;;;;;;65.47;48.13;;;3.90;75.10;;;;;;5071938;28;20485;-58
2021/01/18 05:24:17;;;;;;;66.07;47.23;;;3.80;74.70;;;;;;5076929;28;20131;-58
2021/01/18 05:26:43;;;;;;;65.13;46.90;;;3.80;74.70;;;;;;5080167;28;20039;-58
2021/01/18 05:29:09;;;;;;;64.50;48.17;;;3.80;74.80;;;;;;5074892;28;20131;-56
2021/01/18 05:31:37;;;;;;;63.27;46.87;;;3.80;74.90;;;;;;5080427;28;20024;-57
2021/01/18 05:34:05;;;;;;;66.87;46.23;;;3.80;75.00;;;;;;5071629;28;20043;-57
2021/01/18 05:36:43;;;;;;;64.03;47.20;;;3.80;75.10;;;;;;5081758;28;20122;-56
2021/01/18 05:39:20;;;;;;;64.80;47.10;;;3.70;75.20;;;;;;5074386;28;20517;-57
2021/01/18 05:41:48;;;;;;;64.60;46.37;;;3.70;75.70;;;;;;5076382;28;20040;-57
2021/01/18 05:44:14;;;;;;;65.23;48.13;;;3.70;75.50;;;;;;5075455;28;20047;-57
2021/01/18 05:46:42;;;;;;;68.77;49.97;;;3.70;75.50;;;;;;5080619;28;20051;-57
2021/01/18 05:49:14;;;;;;;60.93;46.93;;;3.70;75.10;;;;;;5078730;28;20032;-56
2021/01/18 05:51:40;;;;;;;64.80;46.57;;;3.70;75.60;;;;;;5081644;28;20040;-56
2021/01/18 05:54:11;;;;;;;60.73;45.67;;;3.60;75.80;;;;;;5074444;28;20135;-56
2021/01/18 05:56:44;;;;;;;65.13;47.87;;;3.70;76.10;;;;;;5076924;28;20040;-55
2021/01/18 05:59:23;;;;;;;62.80;47.70;;;3.70;75.90;;;;;;5071061;28;20469;-56
2021/01/18 06:01:53;;;;;;;61.13;47.67;;;3.70;76.20;;;;;;5083845;28;20028;-57
2021/01/18 06:04:20;;;;;;;67.27;47.23;;;3.60;76.10;;;;;;5075584;28;20051;-57
2021/01/18 06:06:54;;;;;;;63.63;47.43;;;3.70;76.40;;;;;;5081606;28;20032;-57
2021/01/18 06:09:21;;;;;;;65.83;46.40;;;3.70;76.10;;;;;;5075723;28;20050;-59
2021/01/18 06:11:47;;;;;;;66.93;49.47;;;3.70;77.10;;;;;;5081653;28;20055;-55
2021/01/18 06:14:13;;;;;;;68.40;48.67;;;3.70;76.00;;;;;;5073531;28;20127;-57
2021/01/18 06:16:40;;;;;;;64.53;47.03;;;3.70;76.10;;;;;;5078741;28;20119;-56
2021/01/18 06:19:08;;;;;;;64.43;50.33;;;3.70;76.00;;;;;;5072315;28;20040;-56
2021/01/18 06:21:41;;;;;;;63.67;48.67;;;3.70;76.20;;;;;;5080327;28;20029;-57
2021/01/18 06:24:18;;;;;;;65.30;48.77;;;3.60;76.30;;;;;;5072578;28;20064;-56
2021/01/18 06:26:44;;;;;;;65.80;50.10;;;3.60;76.60;;;;;;5080488;28;20056;-58
2021/01/18 06:29:30;;;;;;;68.13;50.67;;;3.60;76.90;;;;;;5072685;28;20397;-57
2021/01/18 06:31:56;;;;;;;70.53;50.63;;;3.60;76.50;;;;;;5051724;28;20040;-58
2021/01/18 06:34:28;;;;;;;66.53;48.80;;;3.60;77.00;;;;;;5077213;28;20120;-58
2021/01/18 06:36:58;;;;;;;67.23;51.07;;;3.60;77.00;;;;;;5082442;28;20044;-56
2021/01/18 06:39:26;;;;;;;70.13;50.57;;;3.60;77.20;;;;;;5077212;28;20029;-57
2021/01/18 06:41:59;;;;;;;62.73;46.63;;;3.60;77.00;;;;;;5073914;28;20532;-55
2021/01/18 06:44:40;;;;;;;70.37;49.47;;;3.70;77.10;;;;;;5080702;28;20047;-58
2021/01/18 06:47:25;;;;;;;68.13;49.20;;;3.60;77.00;;;;;;5076744;28;20044;-57
2021/01/18 06:49:59;;;;;;;65.85;50.05;;;3.70;77.30;;;;;;5076381;28;20462;-60
2021/01/18 06:52:33;;;;;;;63.50;47.58;;;3.60;77.30;;;;;;5074870;28;20089;-58
2021/01/18 06:55:04;;;;;;;68.22;49.80;;;3.60;77.60;;;;;;5079072;28;20035;-55
2021/01/18 06:57:48;;;;;;;67.30;48.47;;;3.60;77.30;;;;;;5072955;28;20123;-56
2021/01/18 07:00:15;;;;;;;70.67;49.10;;;3.70;77.40;;;;;;5077925;28;20055;-58
2021/01/18 07:03:00;;;;;;;66.53;49.33;;;3.60;77.20;;;;;;5073102;28;20044;-57
2021/01/18 07:05:44;;;;;;;64.88;48.72;;;3.60;77.50;;;;;;5052910;28;20481;-58
2021/01/18 07:08:14;;;;;;;68.83;48.43;;;3.70;77.50;;;;;;5076687;28;20052;-57
2021/01/18 07:10:44;;;;;;;64.20;49.00;;;3.60;77.30;;;;;;5077368;28;20036;-57
2021/01/18 07:13:09;;;;;;;66.73;51.50;;;3.60;77.50;;;;;;5060016;28;21219;-58
2021/01/18 07:15:40;;;;;;;69.90;50.30;;;3.60;77.70;;;;;;5078319;28;20032;-56
2021/01/18 07:18:08;;;;;;;68.03;49.53;;;3.70;77.20;;;;;;5075382;28;20029;-57
2021/01/18 07:20:46;;;;;;;69.43;51.27;;;3.70;77.60;;;;;;5075069;28;20124;-56
2021/01/18 07:23:15;;;;;;;71.20;51.70;;;3.70;77.20;;;;;;5073789;28;20051;-56
2021/01/18 07:25:42;;;;;;;71.53;53.43;;;3.60;77.10;;;;;;5079107;28;20381;-56
2021/01/18 07:28:12;;;;;;;70.17;53.43;;;3.60;77.10;;;;;;5072000;28;20044;-56
2021/01/18 07:30:38;;;;;;;72.13;52.30;;;3.60;77.00;;;;;;5080774;28;20043;-56
2021/01/18 07:33:15;;;;;;;70.73;52.03;;;3.70;76.80;;;;;;5073790;28;20040;-57
2021/01/18 07:35:42;;;;;;;69.77;51.60;;;3.60;77.00;;;;;;5078475;28;20056;-56
2021/01/18 07:38:21;;;;;;;70.63;51.33;;;3.70;77.00;;;;;;5069314;28;20052;-56
2021/01/18 07:41:08;;;;;;;70.50;52.03;;;3.70;77.30;;;;;;5075615;28;20476;-57
2021/01/18 07:43:45;;;;;;;73.10;52.23;;;3.70;77.10;;;;;;5023055;28;20447;-57
2021/01/18 07:46:25;;;;;;;72.10;52.00;;;3.70;76.70;;;;;;5066935;28;20135;-57
2021/01/18 07:49:13;;;;;;;74.87;54.27;;;3.70;77.10;;;;;;5062506;28;20126;-56
2021/01/18 07:51:38;;;;;;;75.50;52.53;;;3.70;77.20;;;;;;5080145;28;20028;-57
2021/01/18 07:54:04;;;;;;;81.17;55.43;;;3.70;77.30;;;;;;5074672;28;20051;-57
2021/01/18 07:56:32;;;;;;;71.50;52.60;;;3.70;76.70;;;;;;5082710;28;20044;-58
2021/01/18 07:59:07;;;;;;;77.37;56.93;;;3.70;76.50;;;;;;5075291;28;20390;-57
2021/01/18 08:01:36;;;;;;;82.73;57.03;;;3.80;77.00;;;;;;5076074;28;20036;-57
2021/01/18 08:04:21;;;;;;;81.53;59.00;;;3.70;76.80;;;;;;5073421;28;20052;-58
2021/01/18 08:07:08;;;;;;;60.83;42.47;;;3.90;76.50;;;;;;5083082;28;20036;-56
2021/01/18 08:09:34;;;;;;;84.10;58.97;;;3.80;76.90;;;;;;5048349;28;20397;-55
2021/01/18 08:12:32;;;;;;;85.73;59.77;;;3.80;76.70;;;;;;5064510;28;20142;-57
2021/01/18 08:15:08;;;;;;;88.83;60.77;;;3.80;76.80;;;;;;5023499;28;20600;-56
2021/01/18 08:17:34;;;;;;;85.60;59.87;;;3.80;76.70;;;;;;5069294;28;20036;-54
2021/01/18 08:20:10;;;;;;;89.77;62.73;;;3.80;76.50;;;;;;5078111;28;20486;-56
2021/01/18 08:22:36;;;;;;;83.70;58.87;;;3.80;76.70;;;;;;5082867;28;20038;-57
2021/01/18 08:25:03;;;;;;;78.07;56.43;;;3.80;77.00;;;;;;5078278;28;20036;-56
2021/01/18 08:27:48;;;;;;;79.03;57.67;;;3.70;76.90;;;;;;5081495;28;20471;-57
2021/01/18 08:30:30;;;;;;;81.68;57.35;;;3.90;77.10;;;;;;5079987;28;20036;-57
2021/01/18 08:33:03;;;;;;;80.23;58.00;;;3.90;76.90;;;;;;5057562;28;20051;-56
2021/01/18 08:35:32;;;;;;;81.83;57.23;;;3.90;76.70;;;;;;5076559;28;20166;-55
2021/01/18 08:38:02;;;;;;;80.10;58.60;;;4.00;76.90;;;;;;5069021;28;20063;-58
2021/01/18 08:40:37;;;;;;;78.50;57.03;;;4.00;76.40;;;;;;5073016;28;20025;-56
2021/01/18 08:43:02;;;;;;;83.30;60.20;;;3.90;76.70;;;;;;5079406;28;20417;-58
2021/01/18 08:45:37;;;;;;;76.93;56.83;;;4.10;76.50;;;;;;5077932;28;20063;-58
2021/01/18 08:48:05;;;;;;;85.90;60.25;;;4.10;76.40;;;;;;5082576;28;20036;-58
2021/01/18 08:50:34;;;;;;;90.07;63.27;;;4.20;76.70;;;;;;5076209;28;20115;-57
2021/01/18 08:53:03;;;;;;;92.83;64.30;;;4.20;76.40;;;;;;5084343;28;20052;-56
2021/01/18 08:55:28;;;;;;;90.80;64.57;;;4.20;76.20;;;;;;5072813;28;20052;-56
2021/01/18 08:58:00;;;;;;;93.77;67.33;;;4.20;76.40;;;;;;5075724;28;20040;-57
2021/01/18 09:00:39;;;;;;;102.33;71.93;;;4.20;76.00;;;;;;5078114;28;20036;-57
2021/01/18 09:03:05;;;;;;;102.30;72.03;;;4.20;74.60;;;;;;5082039;28;20182;-57
2021/01/18 09:05:31;;;;;;;99.67;72.57;;;4.10;75.00;;;;;;5078846;28;20115;-58
2021/01/18 09:07:57;;;;;;;97.63;70.53;;;4.40;74.70;;;;;;5083581;28;20697;-58
2021/01/18 09:11:05;;;;;;;99.50;72.27;;;4.30;73.50;;;;;;5080062;28;20032;-59
2021/01/18 09:13:32;;;;;;;97.67;70.00;;;4.10;73.90;;;;;;5053519;28;20507;-57
2021/01/18 09:16:00;;;;;;;98.83;70.73;;;4.00;74.70;;;;;;5078861;28;20083;-57
2021/01/18 09:18:27;;;;;;;103.23;71.70;;;3.90;74.70;;;;;;5075099;28;20119;-55
2021/01/18 09:20:54;;;;;;;103.57;74.10;;;3.90;75.00;;;;;;5075212;28;20032;-57
2021/01/18 09:23:21;;;;;;;101.57;72.10;;;3.90;75.00;;;;;;5078814;28;20044;-58
2021/01/18 09:26:11;;;;;;;102.87;72.17;;;4.00;75.20;;;;;;5083004;28;20036;-57
2021/01/18 09:28:38;;;;;;;103.83;72.60;;;4.10;74.70;;;;;;5055802;28;20114;-57
2021/01/18 09:31:12;;;;;;;102.10;72.97;;;4.10;74.90;;;;;;5080800;28;20040;-54
2021/01/18 09:33:42;;;;;;;102.57;73.95;;;4.00;74.60;;;;;;5075316;28;20427;-56
2021/01/18 09:36:16;;;;;;;109.53;76.53;;;4.20;75.00;;;;;;5078925;28;20090;-53
2021/01/18 09:38:43;;;;;;;103.23;76.23;;;4.20;74.20;;;;;;5075962;28;20553;-54
2021/01/18 09:41:09;;;;;;;107.00;77.90;;;4.10;74.50;;;;;;5075555;28;20048;-56
2021/01/18 09:43:35;;;;;;;107.07;75.90;;;4.10;74.90;;;;;;5076957;28;20063;-56
2021/01/18 09:46:02;;;;;;;110.23;79.17;;;4.10;74.70;;;;;;5077871;28;20056;-56
2021/01/18 09:48:28;;;;;;;106.23;77.43;;;4.10;74.40;;;;;;5078067;28;20520;-57
2021/01/18 09:51:02;;;;;;;105.00;77.37;;;4.10;74.40;;;;;;5084608;28;20485;-56
2021/01/18 09:53:27;;;;;;;100.97;77.73;;;4.20;74.00;;;;;;5075370;28;20055;-55
2021/01/18 09:55:55;;;;;;;119.93;76.80;;;4.20;73.70;;;;;;5081250;28;20032;-58
2021/01/18 09:58:41;;;;;;;103.10;75.73;;;4.30;74.20;;;;;;5077078;28;20118;-57
2021/01/18 10:01:08;;;;;;;;;;;4.20;73.90;;;;;;5074140;28;20508;-58
2021/01/18 10:03:38;;;;;;;100.00;73.73;;;4.10;74.00;;;;;;5073991;28;19920;-56
2021/01/18 10:06:09;;;;;;;113.97;76.53;;;4.20;74.10;;;;;;5078703;28;20067;-57
2021/01/18 10:08:38;;;;;;;121.83;80.60;;;4.30;74.10;;;;;;5072485;28;20041;-57
2021/01/18 10:11:04;;;;;;;107.77;79.77;;;4.30;73.40;;;;;;5075309;28;20485;-56
2021/01/18 10:13:30;;;;;;;108.03;78.37;;;4.20;73.40;;;;;;5074145;28;20436;-58
2021/01/18 10:16:06;;;;;;;108.47;82.40;;;4.10;73.90;;;;;;5080375;28;20032;-55
2021/01/18 10:18:42;;;;;;;109.97;79.97;;;4.10;73.90;;;;;;5072182;28;20035;-59
2021/01/18 10:21:10;;;;;;;109.10;80.67;;;4.10;74.20;;;;;;5078642;28;20075;-56
2021/01/18 10:23:47;;;;;;;112.37;79.53;;;4.00;73.70;;;;;;5073944;28;20048;-59
2021/01/18 10:26:40;;;;;;;112.00;80.90;;;4.10;74.50;;;;;;5080618;28;20497;-54
2021/01/18 10:29:06;;;;;;;115.60;81.40;;;4.10;74.40;;;;;;5045464;28;20131;-58
2021/01/18 10:31:35;;;;;;;116.17;82.17;;;4.20;74.40;;;;;;5074359;28;20441;-59
2021/01/18 10:34:17;;;;;;;121.23;82.40;;;4.20;74.40;;;;;;5075942;28;20136;-58
2021/01/18 10:36:47;;;;;;;116.47;83.93;;;4.20;74.40;;;;;;5073002;28;20169;-58
2021/01/18 10:39:32;;;;;;;118.53;84.43;;;4.20;74.10;;;;;;5069095;28;21570;-57
2021/01/18 10:42:16;;;;;;;118.15;82.57;;;4.20;74.70;;;;;;5053520;28;20044;-58
2021/01/18 10:44:52;;;;;;;118.30;84.37;;;4.10;74.30;;;;;;5073803;28;20044;-57
2021/01/18 10:47:28;;;;;;;111.17;79.33;;;4.20;74.60;;;;;;5076825;28;20108;-59
2021/01/18 10:49:58;;;;;;;118.97;83.80;;;4.10;74.20;;;;;;5074116;28;20032;-59
2021/01/18 10:52:34;;;;;;;109.17;79.03;;;4.20;74.10;;;;;;5081270;28;20394;-57
2021/01/18 10:55:02;;;;;;;110.23;78.60;;;4.30;74.40;;;;;;5077075;28;20095;-58
2021/01/18 10:57:28;;;;;;;111.30;81.10;;;4.40;74.50;;;;;;5081630;28;20040;-60
2021/01/18 11:00:04;;;;;;;106.20;77.23;;;4.40;73.80;;;;;;5071343;28;20040;-58
2021/01/18 11:02:30;;;;;;;107.10;78.60;;;4.30;74.40;;;;;;5073378;28;20044;-58
2021/01/18 11:04:57;;;;;;;102.47;76.87;;;4.40;74.10;;;;;;5073410;28;20039;-58
2021/01/18 11:07:24;;;;;;;106.50;78.43;;;4.30;74.00;;;;;;5076084;28;20086;-58
2021/01/18 11:09:57;;;;;;;114.00;79.57;;;4.20;73.90;;;;;;5080432;28;20051;-56
2021/01/18 11:12:34;;;;;;;103.40;76.77;;;4.20;74.30;;;;;;5076844;28;20052;-57
2021/01/18 11:15:04;;;;;;;112.70;77.47;;;4.00;75.00;;;;;;5056842;28;20513;-56
2021/01/18 11:17:31;;;;;;;110.70;76.50;;;3.90;75.40;;;;;;5071951;28;20603;-57
2021/01/18 11:19:57;;;;;;;114.23;78.53;;;4.00;75.30;;;;;;5072565;28;20025;-57
2021/01/18 11:22:22;;;;;;;107.87;77.90;;;4.00;75.20;;;;;;5073252;28;20034;-58
2021/01/18 11:24:48;;;;;;;108.93;76.97;;;4.10;75.50;;;;;;5083018;28;20044;-57
2021/01/18 11:27:14;;;;;;;112.43;79.53;;;4.30;75.40;;;;;;5073762;28;20087;-56
2021/01/18 11:29:40;;;;;;;109.90;77.73;;;4.20;75.10;;;;;;5076468;28;20028;-58
2021/01/18 11:32:06;;;;;;;109.67;77.87;;;4.30;75.50;;;;;;5072830;28;20051;-55
2021/01/18 11:34:33;;;;;;;112.77;79.43;;;4.40;75.10;;;;;;5071611;28;20036;-58
2021/01/18 11:37:06;;;;;;;113.20;79.63;;;4.40;75.10;;;;;;5069582;28;20584;-56
2021/01/18 11:39:32;;;;;;;110.77;80.17;;;4.40;75.00;;;;;;5083892;28;20041;-54
2021/01/18 11:42:01;;;;;;;117.40;82.20;;;4.40;74.70;;;;;;5075308;28;20135;-60
2021/01/18 11:44:27;;;;;;;116.27;82.37;;;4.40;74.30;;;;;;5078073;28;20401;-60
2021/01/18 11:47:00;;;;;;;107.30;78.67;;;4.10;74.70;;;;;;5083345;28;20056;-56
2021/01/18 11:49:26;;;;;;;108.23;80.67;;;4.30;75.10;;;;;;5083067;28;20029;-60
2021/01/18 11:51:54;;;;;;;113.57;82.10;;;4.30;75.20;;;;;;5075603;28;20160;-60
2021/01/18 11:54:21;;;;;;;115.93;82.47;;;4.40;75.70;;;;;;5080475;28;20072;-52
2021/01/18 11:56:47;;;;;;;117.53;84.73;;;4.50;75.00;;;;;;5081592;28;20045;-52
2021/01/18 11:59:12;;;;;;;117.63;82.37;;;4.60;74.70;;;;;;5078028;28;20382;-61
2021/01/18 12:01:42;;;;;;;117.33;83.33;;;4.70;75.40;;;;;;5083230;28;20481;-60
2021/01/18 12:04:08;;;;;;;112.03;82.50;;;4.80;75.30;;;;;;5079929;28;20371;-61
2021/01/18 12:06:38;;;;;;;115.50;81.43;;;4.80;75.10;;;;;;5081248;28;20139;-61
2021/01/18 12:09:05;;;;;;;115.73;82.20;;;4.90;74.50;;;;;;5075213;28;20443;-61
2021/01/18 12:11:38;;;;;;;119.57;84.90;;;4.80;74.20;;;;;;5085463;28;20399;-59
2021/01/18 12:14:24;;;;;;;114.63;82.13;;;4.60;74.40;;;;;;5074766;28;20040;-60
2021/01/18 12:16:50;;;;;;;113.67;79.23;;;4.80;74.50;;;;;;5079003;28;20032;-60
2021/01/18 12:19:16;;;;;;;112.33;82.07;;;4.80;74.90;;;;;;5078166;28;20085;-58
2021/01/18 12:21:43;;;;;;;113.40;83.47;;;4.80;74.60;;;;;;5078760;28;20044;-55
2021/01/18 12:24:09;;;;;;;119.60;86.27;;;4.80;74.10;;;;;;5077372;28;20497;-53
2021/01/18 12:26:35;;;;;;;120.97;85.73;;;4.80;74.30;;;;;;5084646;28;20089;-60
2021/01/18 12:29:00;;;;;;;116.33;84.70;;;4.90;74.60;;;;;;5074206;28;20040;-55
2021/01/18 12:31:26;;;;;;;122.53;87.70;;;5.10;74.70;;;;;;5068223;28;20071;-55
2021/01/18 12:33:53;;;;;;;116.97;84.53;;;5.00;74.20;;;;;;5078892;28;20760;-54
2021/01/18 12:36:18;;;;;;;119.90;87.73;;;5.00;74.40;;;;;;5086054;28;20032;-55
2021/01/18 12:38:44;;;;;;;122.40;86.60;;;4.90;74.50;;;;;;5077135;28;20042;-54
2021/01/18 12:41:11;;;;;;;119.80;84.70;;;5.10;74.70;;;;;;5077414;28;20036;-50
2021/01/18 12:43:37;;;;;;;119.87;85.37;;;5.00;74.10;;;;;;5078219;28;20036;-55
2021/01/18 12:46:03;;;;;;;123.37;86.67;;;5.10;74.40;;;;;;5078864;28;20056;-55
2021/01/18 12:48:29;;;;;;;120.53;87.97;;;5.10;74.60;;;;;;5076394;28;20131;-54